Hauptseite
Satellitenwetter 10-Tage PrognosenKlimaSeewetter Wirbelstürme Blitz FlughäfenFAQ Newsletter Über uns
Wetter : Europa Afrika Nordamerika Südamerika Asien Australien-Ozeanien Andere
Sprachen Kontakt

Innsbruck, Österreich

Flughafen Innsbruck

Breite: 47-16N, Länge: 011-21E, Höhe: 581 m


METAR: LOWI 242050Z 17002KT 9999 FEW040 SCT075 10/09 Q1018 NOSIG
TAF: LOWI 241715Z 2418/2518 28004KT 9999 FEW020 BKN060 TX17/2514Z TN08/2502Z BECMG 2509/2511 SCT070 SCT100

Zeit: 23:08 (21:08 UTC)

Beobachtung

Neuester Wetterbericht von vor 18 Minuten, um 20:50 UTC
Wind 2 kt aus Süd
Temperatur 10°C
Luftfeuchtigkeit 93%
Luftdruck 1018 hPa
Sichtweite 10 km oder mehr
Leicht bewölkt in der Höhe von 4000 ft
Aufgelockert bewölkt in der Höhe von 7500 ft

Maßeinheiten ändern

Prognose

Neuester Wetterbericht von vor 3 Stunden und 53 Minuten, um 17:15 UTC
Gültige Prognose vom 24 um 18 UTC bis 25 um 18 UTC
Wind 4 kt aus West
Sichtweite 10 km oder mehr
Leicht bewölkt in der Höhe von 2000 ft
Durchbrochene Bewölkung in der Höhe von 6000 ft
Übergehend zu
vom 25 um 09 UTC bis 25 um 11 UTC
Aufgelockert bewölkt in der Höhe von 7000 ft
Aufgelockert bewölkt in der Höhe von 10000 ft
Die Angaben auf diesen Webseiten unterliegen einer Erklärung über den Haftungsausschluss
Wetter : Europa Afrika Nordamerika Südamerika Asien Australien-Ozeanien Andere
Satellitenwetter 10-Tage PrognosenKlimaSeewetter Wirbelstürme Blitz FlughäfenFAQ Sprachen Kontakt Newsletter Über uns